Point Roberts Airpark

1RL · 华盛顿州, 美国

罗盘
风向 的 风向 320° Point Roberts Airpark 16/34
风: 6 kt, 2 beaufort

6 kt

2 kt
改变
0 6.000 12.000 18.000 24.000 30.000
FEW 6.000 ft
FEW 21.000 ft
FEW 24.000 ft
SPECI CYVR 040100Z 32006KT 15SM FEW060 FEW210 FEW240 01/M02 A3019 RMK CU1CC1CI2 CU TR CC TR SLP224

METAR Point Roberts Airpark - 1RL

Point Roberts Airpark是,美国中的小机场。 该机场有一条跑道: 16/34. 该领域的国际民航组织标志是1RL.

这份报告是针对2022年12月3日 17:00, 当地时间在溫哥華國際機場进行的。

机场观察

风向为320°,速度为6 kt。

可见度为15 mi。

有几云在6.000 ft的高度, 几云在21.000 ft的高度 和 几云在24.000 ft的高度。 没有观察到天花板。

温度为1 °C,阵风为-4 °C。 露点为-2 °C,相对湿度为81%。 海平面上的气压为30,19 inHg (QNH)。

白天

今天,太阳从07:48升起,在16:16降落。 这适用于Point Roberts Airpark,世界夏令时可能有所不同。 当地时间与世界标准时间之间的时差为-8 小时。 当前,没有夏令时有效。

公司介绍

我们没有关于这个机场的公司信息。

体会

到Vliegles.nl去找飞行课程,跳伞和其他飞行体验。 浏览页面,了解Point Roberts Airpark附近所有可用的活动。 你也可以使用搜索功能来寻找你所在地附近的特定飞行课程、跳伞或其他飞行体验。

跑道

Id 标题 侧风 逆风 侧风 %
16/34 160°-340° 2 kt 6 kt 34 %

逆风成分最大的方向会被突出显示,并用于横风计算。 这并不一定意味着这个方向在使用。

乌云

6.000 ft FEW 几云
21.000 ft FEW 几云
24.000 ft FEW 几云

温度 & 天气

温度 1 °C
露点 -2 °C
相对湿度 81%
风寒 -4 °C
Kp-index 1 (0-9)

评论

SLP224海平面压力为30,19 inHg (30,19 inHg)
CU1CC1CI2 CU TR CC TR

白天

日出
07:50 (13:53)
中午
12:03
日落
16:15

小工具

你想在你的网站上有一个关于Point Roberts Airpark的当前航空天气(METAR)的小部件吗?

显示HTML代码

我们和第三方通过cookies跟踪您在我们网站上的互联网行为。如果你继续,我们认为你同意我们的饼干政策